sensor_id;sensor_type;location;lat;lon;timestamp;pressure;altitude;pressure_sealevel;temperature;humidity
61506;BME280;47366;51.916;4.574;2023-02-14T00:01:44;103603.50;;;4.32;84.70
61506;BME280;47366;51.916;4.574;2023-02-14T00:04:09;103605.28;;;4.33;84.92
61506;BME280;47366;51.916;4.574;2023-02-14T00:06:35;103606.13;;;4.29;84.63
61506;BME280;47366;51.916;4.574;2023-02-14T00:09:04;103607.03;;;4.28;85.00
61506;BME280;47366;51.916;4.574;2023-02-14T00:11:29;103607.91;;;4.25;84.68
61506;BME280;47366;51.916;4.574;2023-02-14T00:13:55;103593.53;;;4.21;85.30
61506;BME280;47366;51.916;4.574;2023-02-14T00:16:40;103600.69;;;4.21;85.02
61506;BME280;47366;51.916;4.574;2023-02-14T00:19:05;103595.28;;;4.16;84.91
61506;BME280;47366;51.916;4.574;2023-02-14T00:21:32;103597.09;;;4.17;84.91
61506;BME280;47366;51.916;4.574;2023-02-14T00:24:06;103593.44;;;4.12;84.82
61506;BME280;47366;51.916;4.574;2023-02-14T00:26:32;103596.13;;;4.11;85.19
61506;BME280;47366;51.916;4.574;2023-02-14T00:28:58;103588.06;;;4.08;85.11
61506;BME280;47366;51.916;4.574;2023-02-14T00:31:23;103584.47;;;4.06;85.37
61506;BME280;47366;51.916;4.574;2023-02-14T00:33:48;103582.63;;;4.01;86.02
61506;BME280;47366;51.916;4.574;2023-02-14T00:36:16;103588.91;;;4.05;85.78
61506;BME280;47366;51.916;4.574;2023-02-14T00:38:43;103585.34;;;4.03;85.85
61506;BME280;47366;51.916;4.574;2023-02-14T00:41:09;103593.41;;;4.06;85.55
61506;BME280;47366;51.916;4.574;2023-02-14T00:43:34;103580.88;;;4.03;85.70
61506;BME280;47366;51.916;4.574;2023-02-14T00:45:59;103577.25;;;4.01;85.51
61506;BME280;47366;51.916;4.574;2023-02-14T00:48:25;103579.09;;;4.07;85.83
61506;BME280;47366;51.916;4.574;2023-02-14T00:50:50;103579.09;;;4.06;85.86
61506;BME280;47366;51.916;4.574;2023-02-14T00:53:16;103574.59;;;4.03;85.94
61506;BME280;47366;51.916;4.574;2023-02-14T00:55:43;103579.97;;;4.03;86.19
61506;BME280;47366;51.916;4.574;2023-02-14T00:58:09;103572.78;;;4.00;85.99
61506;BME280;47366;51.916;4.574;2023-02-14T01:00:34;103576.31;;;3.98;86.38
61506;BME280;47366;51.916;4.574;2023-02-14T01:03:00;103565.56;;;3.93;85.97
61506;BME280;47366;51.916;4.574;2023-02-14T01:05:25;103564.69;;;3.96;85.86
61506;BME280;47366;51.916;4.574;2023-02-14T01:07:50;103561.09;;;3.94;86.40
61506;BME280;47366;51.916;4.574;2023-02-14T01:10:16;103563.78;;;3.95;86.14
61506;BME280;47366;51.916;4.574;2023-02-14T01:12:41;103561.97;;;3.93;86.39
61506;BME280;47366;51.916;4.574;2023-02-14T01:15:07;103556.59;;;3.90;86.18
61506;BME280;47366;51.916;4.574;2023-02-14T01:17:32;103548.53;;;3.87;86.38
61506;BME280;47366;51.916;4.574;2023-02-14T01:19:57;103553.84;;;3.85;86.36
61506;BME280;47366;51.916;4.574;2023-02-14T01:22:23;103547.56;;;3.80;86.36
61506;BME280;47366;51.916;4.574;2023-02-14T01:24:48;103553.81;;;3.80;86.51
61506;BME280;47366;51.916;4.574;2023-02-14T01:27:13;103553.78;;;3.77;86.05
61506;BME280;47366;51.916;4.574;2023-02-14T01:29:39;103554.66;;;3.76;86.04
61506;BME280;47366;51.916;4.574;2023-02-14T01:32:04;103553.75;;;3.74;86.28
61506;BME280;47366;51.916;4.574;2023-02-14T01:34:29;103551.94;;;3.73;86.02
61506;BME280;47366;51.916;4.574;2023-02-14T01:36:54;103550.09;;;3.68;86.27
61506;BME280;47366;51.916;4.574;2023-02-14T01:39:20;103544.69;;;3.63;85.98
61506;BME280;47366;51.916;4.574;2023-02-14T01:41:46;103545.56;;;3.62;86.26
61506;BME280;47366;51.916;4.574;2023-02-14T01:46:41;103550.91;;;3.62;85.70
61506;BME280;47366;51.916;4.574;2023-02-14T01:49:14;103558.97;;;3.62;85.95
61506;BME280;47366;51.916;4.574;2023-02-14T01:51:55;103549.09;;;3.56;85.73
61506;BME280;47366;51.916;4.574;2023-02-14T01:54:23;103544.56;;;3.52;85.86
61506;BME280;47366;51.916;4.574;2023-02-14T01:56:53;103545.44;;;3.50;86.08
61506;BME280;47366;51.916;4.574;2023-02-14T01:59:24;103548.13;;;3.48;86.07
61506;BME280;47366;51.916;4.574;2023-02-14T02:01:51;103551.66;;;3.47;86.30
61506;BME280;47366;51.916;4.574;2023-02-14T02:04:22;103549.88;;;3.48;86.13
61506;BME280;47366;51.916;4.574;2023-02-14T02:06:56;103554.31;;;3.44;86.05
61506;BME280;47366;51.916;4.574;2023-02-14T02:09:34;103555.16;;;3.43;86.10
61506;BME280;47366;51.916;4.574;2023-02-14T02:12:02;103555.16;;;3.43;86.26
61506;BME280;47366;51.916;4.574;2023-02-14T02:14:28;103548.97;;;3.46;85.97
61506;BME280;47366;51.916;4.574;2023-02-14T02:30:42;103544.44;;;3.38;85.65
61506;BME280;47366;51.916;4.574;2023-02-14T02:42:13;103538.09;;;3.33;86.05
61506;BME280;47366;51.916;4.574;2023-02-14T02:47:30;103535.41;;;3.32;85.87
61506;BME280;47366;51.916;4.574;2023-02-14T02:50:04;103529.16;;;3.31;85.77
61506;BME280;47366;51.916;4.574;2023-02-14T02:57:53;103521.09;;;3.30;86.65
61506;BME280;47366;51.916;4.574;2023-02-14T03:00:21;103529.06;;;3.25;86.15
61506;BME280;47366;51.916;4.574;2023-02-14T03:02:50;103521.00;;;3.24;85.99
61506;BME280;47366;51.916;4.574;2023-02-14T03:05:35;103529.06;;;3.25;86.18
61506;BME280;47366;51.916;4.574;2023-02-14T03:08:02;103521.91;;;3.23;85.74
61506;BME280;47366;51.916;4.574;2023-02-14T03:10:31;103517.41;;;3.20;85.85
61506;BME280;47366;51.916;4.574;2023-02-14T03:26:50;103525.41;;;3.18;85.80
61506;BME280;47366;51.916;4.574;2023-02-14T03:34:38;103524.47;;;3.13;86.55
61506;BME280;47366;51.916;4.574;2023-02-14T03:37:13;103527.13;;;3.13;86.14
61506;BME280;47366;51.916;4.574;2023-02-14T03:39:50;103529.75;;;3.09;86.80
61506;BME280;47366;51.916;4.574;2023-02-14T03:42:24;103524.38;;;3.06;86.46
61506;BME280;47366;51.916;4.574;2023-02-14T03:44:52;103524.31;;;3.03;86.78
61506;BME280;47366;51.916;4.574;2023-02-14T03:47:22;103524.25;;;2.96;86.65
61506;BME280;47366;51.916;4.574;2023-02-14T03:50:10;103526.94;;;3.00;86.62
61506;BME280;47366;51.916;4.574;2023-02-14T03:52:39;103523.34;;;2.96;86.35
61506;BME280;47366;51.916;4.574;2023-02-14T03:55:06;103524.16;;;2.90;86.31
61506;BME280;47366;51.916;4.574;2023-02-14T03:57:39;103531.25;;;2.88;86.26
61506;BME280;47366;51.916;4.574;2023-02-14T04:00:08;103524.09;;;2.84;86.73
61506;BME280;47366;51.916;4.574;2023-02-14T04:02:44;103520.50;;;2.84;86.31
61506;BME280;47366;51.916;4.574;2023-02-14T04:05:20;103523.19;;;2.84;86.45
61506;BME280;47366;51.916;4.574;2023-02-14T04:07:50;103519.63;;;2.85;86.64
61506;BME280;47366;51.916;4.574;2023-02-14T04:10:17;103514.19;;;2.80;86.57
61506;BME280;47366;51.916;4.574;2023-02-14T04:12:42;103516.84;;;2.79;86.69
61506;BME280;47366;51.916;4.574;2023-02-14T04:15:08;103515.03;;;2.74;86.51
61506;BME280;47366;51.916;4.574;2023-02-14T04:17:34;103513.22;;;2.72;86.94
61506;BME280;47366;51.916;4.574;2023-02-14T04:20:18;103507.88;;;2.73;86.48
61506;BME280;47366;51.916;4.574;2023-02-14T04:22:43;103515.97;;;2.78;86.36
61506;BME280;47366;51.916;4.574;2023-02-14T04:25:10;103515.03;;;2.76;86.88
61506;BME280;47366;51.916;4.574;2023-02-14T04:27:36;103517.75;;;2.78;86.44
61506;BME280;47366;51.916;4.574;2023-02-14T04:30:01;103512.34;;;2.76;86.59
61506;BME280;47366;51.916;4.574;2023-02-14T04:32:26;103513.22;;;2.73;86.63
61506;BME280;47366;51.916;4.574;2023-02-14T04:34:52;103518.63;;;2.78;86.69
61506;BME280;47366;51.916;4.574;2023-02-14T04:37:18;103521.34;;;2.81;86.24
61506;BME280;47366;51.916;4.574;2023-02-14T04:39:44;103519.53;;;2.79;86.41
61506;BME280;47366;51.916;4.574;2023-02-14T04:42:09;103519.56;;;2.80;86.72
61506;BME280;47366;51.916;4.574;2023-02-14T04:44:35;103519.59;;;2.83;87.15
61506;BME280;47366;51.916;4.574;2023-02-14T04:47:02;103519.59;;;2.83;86.81
61506;BME280;47366;51.916;4.574;2023-02-14T04:49:27;103517.84;;;2.85;86.42
61506;BME280;47366;51.916;4.574;2023-02-14T04:51:53;103514.31;;;2.86;86.31
61506;BME280;47366;51.916;4.574;2023-02-14T04:54:18;103509.81;;;2.84;86.54
61506;BME280;47366;51.916;4.574;2023-02-14T04:56:43;103516.06;;;2.86;87.08
61506;BME280;47366;51.916;4.574;2023-02-14T04:59:09;103512.47;;;2.85;86.94
61506;BME280;47366;51.916;4.574;2023-02-14T05:01:34;103501.72;;;2.81;87.44
61506;BME280;47366;51.916;4.574;2023-02-14T05:03:59;103508.84;;;2.80;86.98
61506;BME280;47366;51.916;4.574;2023-02-14T05:06:25;103507.94;;;2.76;87.30
61506;BME280;47366;51.916;4.574;2023-02-14T05:08:50;103506.09;;;2.75;87.09
61506;BME280;47366;51.916;4.574;2023-02-14T05:11:15;103511.47;;;2.75;87.10
61506;BME280;47366;51.916;4.574;2023-02-14T05:13:41;103512.34;;;2.74;86.80
61506;BME280;47366;51.916;4.574;2023-02-14T05:16:06;103507.78;;;2.69;87.08
61506;BME280;47366;51.916;4.574;2023-02-14T05:18:31;103512.22;;;2.67;86.49
61506;BME280;47366;51.916;4.574;2023-02-14T05:20:57;103511.31;;;2.65;86.85
61506;BME280;47366;51.916;4.574;2023-02-14T05:23:22;103512.19;;;2.64;86.70
61506;BME280;47366;51.916;4.574;2023-02-14T05:25:49;103513.00;;;2.58;87.05
61506;BME280;47366;51.916;4.574;2023-02-14T05:28:15;103518.34;;;2.60;86.63
61506;BME280;47366;51.916;4.574;2023-02-14T05:30:40;103508.47;;;2.54;86.59
61506;BME280;47366;51.916;4.574;2023-02-14T05:33:05;103513.78;;;2.51;86.69
61506;BME280;47366;51.916;4.574;2023-02-14T05:35:31;103515.50;;;2.47;86.78
61506;BME280;47366;51.916;4.574;2023-02-14T05:37:56;103520.78;;;2.43;87.20
61506;BME280;47366;51.916;4.574;2023-02-14T05:40:22;103503.78;;;2.38;86.99
61506;BME280;47366;51.916;4.574;2023-02-14T05:42:47;103515.31;;;2.35;86.65
61506;BME280;47366;51.916;4.574;2023-02-14T05:45:12;103516.22;;;2.34;87.13
61506;BME280;47366;51.916;4.574;2023-02-14T05:47:38;103518.00;;;2.35;86.98
61506;BME280;47366;51.916;4.574;2023-02-14T05:50:04;103513.47;;;2.31;87.14
61506;BME280;47366;51.916;4.574;2023-02-14T05:52:30;103512.56;;;2.30;86.74
61506;BME280;47366;51.916;4.574;2023-02-14T05:54:56;103506.28;;;2.27;86.90
61506;BME280;47366;51.916;4.574;2023-02-14T05:57:21;103512.56;;;2.29;86.65
61506;BME280;47366;51.916;4.574;2023-02-14T05:59:46;103508.06;;;2.28;86.97
61506;BME280;47366;51.916;4.574;2023-02-14T06:02:12;103502.69;;;2.26;87.25
61506;BME280;47366;51.916;4.574;2023-02-14T06:04:38;103506.22;;;2.24;86.81
61506;BME280;47366;51.916;4.574;2023-02-14T06:07:03;103508.97;;;2.27;86.45
61506;BME280;47366;51.916;4.574;2023-02-14T06:09:29;103508.06;;;2.28;86.41
61506;BME280;47366;51.916;4.574;2023-02-14T06:11:54;103507.19;;;2.27;86.94
61506;BME280;47366;51.916;4.574;2023-02-14T06:14:20;103506.28;;;2.28;87.05
61506;BME280;47366;51.916;4.574;2023-02-14T06:16:45;103509.00;;;2.30;86.79
61506;BME280;47366;51.916;4.574;2023-02-14T06:19:10;103501.84;;;2.27;87.09
61506;BME280;47366;51.916;4.574;2023-02-14T06:21:36;103500.09;;;2.29;87.04
61506;BME280;47366;51.916;4.574;2023-02-14T06:24:01;103506.38;;;2.31;87.67
61506;BME280;47366;51.916;4.574;2023-02-14T06:26:27;103505.44;;;2.31;87.24
61506;BME280;47366;51.916;4.574;2023-02-14T06:28:54;103502.72;;;2.28;87.34
61506;BME280;47366;51.916;4.574;2023-02-14T06:31:20;103500.97;;;2.30;87.43
61506;BME280;47366;51.916;4.574;2023-02-14T06:33:45;103496.50;;;2.27;87.35
61506;BME280;47366;51.916;4.574;2023-02-14T06:36:11;103508.97;;;2.27;87.51
61506;BME280;47366;51.916;4.574;2023-02-14T06:38:36;103506.25;;;2.25;87.25
61506;BME280;47366;51.916;4.574;2023-02-14T06:41:06;103505.31;;;2.23;87.02
61506;BME280;47366;51.916;4.574;2023-02-14T06:43:32;103506.19;;;2.21;87.39
61506;BME280;47366;51.916;4.574;2023-02-14T06:45:58;103502.53;;;2.16;87.48
61506;BME280;47366;51.916;4.574;2023-02-14T06:48:24;103498.19;;;2.22;87.46
61506;BME280;47366;51.916;4.574;2023-02-14T06:50:50;103505.28;;;2.20;86.81
61506;BME280;47366;51.916;4.574;2023-02-14T06:53:16;103509.78;;;2.23;87.11
61506;BME280;47366;51.916;4.574;2023-02-14T06:55:41;103501.72;;;2.20;87.02
61506;BME280;47366;51.916;4.574;2023-02-14T06:58:07;103501.69;;;2.18;87.38
61506;BME280;47366;51.916;4.574;2023-02-14T07:00:32;103512.41;;;2.20;87.01
61506;BME280;47366;51.916;4.574;2023-02-14T07:02:57;103516.84;;;2.19;86.88
61506;BME280;47366;51.916;4.574;2023-02-14T07:05:23;103508.81;;;2.18;86.94
61506;BME280;47366;51.916;4.574;2023-02-14T07:07:48;103515.09;;;2.21;86.79
61506;BME280;47366;51.916;4.574;2023-02-14T07:10:14;103513.34;;;2.22;86.81
61506;BME280;47366;51.916;4.574;2023-02-14T07:12:40;103514.19;;;2.21;87.07
61506;BME280;47366;51.916;4.574;2023-02-14T07:15:11;103515.09;;;2.20;87.13
61506;BME280;47366;51.916;4.574;2023-02-14T07:17:37;103511.53;;;2.21;86.73
61506;BME280;47366;51.916;4.574;2023-02-14T07:20:03;103509.75;;;2.21;86.94
61506;BME280;47366;51.916;4.574;2023-02-14T07:22:29;103521.38;;;2.23;86.79
61506;BME280;47366;51.916;4.574;2023-02-14T07:24:54;103513.34;;;2.22;86.90
61506;BME280;47366;51.916;4.574;2023-02-14T07:27:19;103514.25;;;2.22;86.74
61506;BME280;47366;51.916;4.574;2023-02-14T07:29:44;103515.09;;;2.20;87.00
61506;BME280;47366;51.916;4.574;2023-02-14T07:32:10;103524.03;;;2.23;86.93
61506;BME280;47366;51.916;4.574;2023-02-14T07:34:35;103522.25;;;2.22;87.07
61506;BME280;47366;51.916;4.574;2023-02-14T07:37:01;103517.75;;;2.20;86.79
61506;BME280;47366;51.916;4.574;2023-02-14T07:39:26;103519.50;;;2.19;87.38
61506;BME280;47366;51.916;4.574;2023-02-14T07:41:51;103517.75;;;2.21;87.49
61506;BME280;47366;51.916;4.574;2023-02-14T07:44:17;103515.13;;;2.23;87.00
61506;BME280;47366;51.916;4.574;2023-02-14T07:46:42;103516.91;;;2.24;87.13
61506;BME280;47366;51.916;4.574;2023-02-14T07:49:07;103518.78;;;2.28;87.79
61506;BME280;47366;51.916;4.574;2023-02-14T07:51:33;103519.81;;;2.38;88.06
61506;BME280;47366;51.916;4.574;2023-02-14T07:53:58;103519.84;;;2.41;87.26
61506;BME280;47366;51.916;4.574;2023-02-14T07:56:23;103519.06;;;2.46;87.96
61506;BME280;47366;51.916;4.574;2023-02-14T07:58:49;103520.06;;;2.54;87.90
61506;BME280;47366;51.916;4.574;2023-02-14T08:01:15;103522.81;;;2.58;87.63
61506;BME280;47366;51.916;4.574;2023-02-14T08:03:41;103524.66;;;2.63;87.70
61506;BME280;47366;51.916;4.574;2023-02-14T08:06:10;103522.97;;;2.68;88.06
61506;BME280;47366;51.916;4.574;2023-02-14T08:08:35;103521.28;;;2.75;88.79
61506;BME280;47366;51.916;4.574;2023-02-14T08:11:01;103525.88;;;2.84;90.05
61506;BME280;47366;51.916;4.574;2023-02-14T08:13:26;103519.72;;;2.92;90.26
61506;BME280;47366;51.916;4.574;2023-02-14T08:15:52;103516.28;;;3.01;91.01
61506;BME280;47366;51.916;4.574;2023-02-14T08:18:37;103528.03;;;3.12;92.59
61506;BME280;47366;51.916;4.574;2023-02-14T08:21:04;103518.34;;;3.22;93.37
61506;BME280;47366;51.916;4.574;2023-02-14T08:23:29;103525.59;;;3.32;93.91
61506;BME280;47366;51.916;4.574;2023-02-14T08:25:55;103522.09;;;3.39;93.18
61506;BME280;47366;51.916;4.574;2023-02-14T08:28:21;103524.00;;;3.48;94.02
61506;BME280;47366;51.916;4.574;2023-02-14T08:30:46;103525.00;;;3.59;94.98
61506;BME280;47366;51.916;4.574;2023-02-14T08:33:12;103511.66;;;3.66;92.73
61506;BME280;47366;51.916;4.574;2023-02-14T08:35:38;103510.00;;;3.78;92.54
61506;BME280;47366;51.916;4.574;2023-02-14T08:38:03;103518.19;;;3.95;91.45
61506;BME280;47366;51.916;4.574;2023-02-14T08:40:29;103516.50;;;4.03;91.61
61506;BME280;47366;51.916;4.574;2023-02-14T08:42:55;103521.06;;;4.15;91.70
61506;BME280;47366;51.916;4.574;2023-02-14T08:45:20;103522.91;;;4.22;92.89
61506;BME280;47366;51.916;4.574;2023-02-14T08:47:46;103509.53;;;4.25;92.22
61506;BME280;47366;51.916;4.574;2023-02-14T08:50:14;103512.25;;;4.33;91.90
61506;BME280;47366;51.916;4.574;2023-02-14T08:52:41;103506.03;;;4.37;92.37
61506;BME280;47366;51.916;4.574;2023-02-14T08:55:10;103513.25;;;4.44;93.02
61506;BME280;47366;51.916;4.574;2023-02-14T08:57:36;103509.69;;;4.47;92.79
61506;BME280;47366;51.916;4.574;2023-02-14T09:00:03;103505.25;;;4.55;91.87
61506;BME280;47366;51.916;4.574;2023-02-14T09:02:28;103501.69;;;4.59;92.02
61506;BME280;47366;51.916;4.574;2023-02-14T09:04:54;103505.34;;;4.67;90.83
61506;BME280;47366;51.916;4.574;2023-02-14T09:07:19;103508.94;;;4.74;91.81
61506;BME280;47366;51.916;4.574;2023-02-14T09:09:44;103499.09;;;4.76;91.98
61506;BME280;47366;51.916;4.574;2023-02-14T09:12:10;103503.66;;;4.88;90.79
61506;BME280;47366;51.916;4.574;2023-02-14T09:14:37;103502.78;;;4.92;91.94
61506;BME280;47366;51.916;4.574;2023-02-14T09:17:03;103496.56;;;4.99;91.16
61506;BME280;47366;51.916;4.574;2023-02-14T09:19:34;103492.09;;;5.09;90.28
61506;BME280;47366;51.916;4.574;2023-02-14T09:22:00;103495.72;;;5.22;90.80
61506;BME280;47366;51.916;4.574;2023-02-14T09:24:28;103496.66;;;5.33;89.98
61506;BME280;47366;51.916;4.574;2023-02-14T09:26:54;103493.09;;;5.43;89.63
61506;BME280;47366;51.916;4.574;2023-02-14T09:29:22;103489.56;;;5.57;88.73
61506;BME280;47366;51.916;4.574;2023-02-14T09:31:47;103499.47;;;5.74;88.88
61506;BME280;47366;51.916;4.574;2023-02-14T09:34:13;103493.19;;;5.88;88.84
61506;BME280;47366;51.916;4.574;2023-02-14T09:36:38;103496.81;;;6.07;88.40
61506;BME280;47366;51.916;4.574;2023-02-14T09:39:22;103505.78;;;6.27;87.22
61506;BME280;47366;51.916;4.574;2023-02-14T09:44:31;103498.53;;;6.74;86.00
61506;BME280;47366;51.916;4.574;2023-02-14T09:47:04;103493.06;;;7.01;85.81
61506;BME280;47366;51.916;4.574;2023-02-14T09:49:35;103497.41;;;7.29;85.01
61506;BME280;47366;51.916;4.574;2023-02-14T09:52:03;103488.28;;;7.53;83.88
61506;BME280;47366;51.916;4.574;2023-02-14T09:54:32;103490.88;;;7.73;82.57
61506;BME280;47366;51.916;4.574;2023-02-14T09:57:06;103483.56;;;7.84;82.24
61506;BME280;47366;51.916;4.574;2023-02-14T09:59:56;103478.09;;;7.95;82.07
61506;BME280;47366;51.916;4.574;2023-02-14T10:05:21;103492.09;;;8.43;80.52
61506;BME280;47366;51.916;4.574;2023-02-14T10:10:26;103486.38;;;8.75;80.04
61506;BME280;47366;51.916;4.574;2023-02-14T10:13:09;103485.06;;;9.07;79.27
61506;BME280;47366;51.916;4.574;2023-02-14T10:15:43;103483.06;;;9.21;78.76
61506;BME280;47366;51.916;4.574;2023-02-14T10:18:13;103481.97;;;9.36;77.37
61506;BME280;47366;51.916;4.574;2023-02-14T10:20:43;103473.66;;;9.51;77.59
61506;BME280;47366;51.916;4.574;2023-02-14T10:23:31;103474.41;;;9.60;75.37
61506;BME280;47366;51.916;4.574;2023-02-14T10:26:08;103474.19;;;9.75;76.49
61506;BME280;47366;51.916;4.574;2023-02-14T10:28:47;103480.97;;;10.00;76.05
61506;BME280;47366;51.916;4.574;2023-02-14T10:33:58;103471.41;;;10.34;75.00
61506;BME280;47366;51.916;4.574;2023-02-14T10:36:55;103478.41;;;10.46;72.81
61506;BME280;47366;51.916;4.574;2023-02-14T10:50:13;103472.13;;;10.90;72.37
61506;BME280;47366;51.916;4.574;2023-02-14T10:56:13;103463.03;;;11.35;71.97
61506;BME280;47366;51.916;4.574;2023-02-14T10:58:45;103453.72;;;11.46;71.84
61506;BME280;47366;51.916;4.574;2023-02-14T11:01:15;103463.84;;;11.38;68.49
61506;BME280;47366;51.916;4.574;2023-02-14T11:03:51;103457.63;;;11.32;71.31
61506;BME280;47366;51.916;4.574;2023-02-14T11:06:17;103442.22;;;11.34;69.88
61506;BME280;47366;51.916;4.574;2023-02-14T11:08:42;103449.41;;;11.36;70.16
61506;BME280;47366;51.916;4.574;2023-02-14T11:13:45;103439.16;;;11.49;69.54
61506;BME280;47366;51.916;4.574;2023-02-14T11:16:31;103435.31;;;11.58;69.83
61506;BME280;47366;51.916;4.574;2023-02-14T11:21:40;103431.28;;;11.76;68.62
61506;BME280;47366;51.916;4.574;2023-02-14T11:26:50;103422.53;;;12.00;67.75
61506;BME280;47366;51.916;4.574;2023-02-14T11:29:25;103427.97;;;12.00;68.75
61506;BME280;47366;51.916;4.574;2023-02-14T11:31:51;103428.41;;;12.18;67.25
61506;BME280;47366;51.916;4.574;2023-02-14T11:34:36;103419.22;;;12.22;65.27
61506;BME280;47366;51.916;4.574;2023-02-14T11:37:23;103417.13;;;12.33;67.92
61506;BME280;47366;51.916;4.574;2023-02-14T11:39:50;103408.78;;;12.39;67.59
61506;BME280;47366;51.916;4.574;2023-02-14T11:42:33;103410.19;;;12.54;64.54
61506;BME280;47366;51.916;4.574;2023-02-14T11:44:59;103404.28;;;12.38;66.36
61506;BME280;47366;51.916;4.574;2023-02-14T11:47:27;103386.72;;;12.51;66.03
61506;BME280;47366;51.916;4.574;2023-02-14T11:49:56;103389.38;;;12.53;65.38
61506;BME280;47366;51.916;4.574;2023-02-14T11:52:22;103383.63;;;12.64;66.56
61506;BME280;47366;51.916;4.574;2023-02-14T11:54:53;103379.66;;;12.75;65.37
61506;BME280;47366;51.916;4.574;2023-02-14T11:59:55;103377.44;;;12.88;63.69
61506;BME280;47366;51.916;4.574;2023-02-14T12:02:35;103370.50;;;12.78;64.12
61506;BME280;47366;51.916;4.574;2023-02-14T12:07:35;103359.66;;;13.06;65.73
61506;BME280;47366;51.916;4.574;2023-02-14T12:15:36;103358.44;;;13.16;64.52
61506;BME280;47366;51.916;4.574;2023-02-14T12:24:17;103347.59;;;13.43;63.61
61506;BME280;47366;51.916;4.574;2023-02-14T12:27:05;103345.91;;;13.39;64.39
61506;BME280;47366;51.916;4.574;2023-02-14T12:29:40;103356.66;;;13.44;64.33
61506;BME280;47366;51.916;4.574;2023-02-14T12:32:21;103348.03;;;13.57;63.69
61506;BME280;47366;51.916;4.574;2023-02-14T12:34:48;103340.97;;;13.52;61.33
61506;BME280;47366;51.916;4.574;2023-02-14T12:37:36;103338.09;;;13.56;63.33
61506;BME280;47366;51.916;4.574;2023-02-14T12:40:38;103339.69;;;13.62;62.87
61506;BME280;47366;51.916;4.574;2023-02-14T12:43:06;103328.22;;;13.52;61.61
61506;BME280;47366;51.916;4.574;2023-02-14T13:01:28;103308.22;;;13.53;63.11
61506;BME280;47366;51.916;4.574;2023-02-14T13:06:47;103299.53;;;13.69;61.18
61506;BME280;47366;51.916;4.574;2023-02-14T13:22:21;103276.25;;;13.85;61.52
61506;BME280;47366;51.916;4.574;2023-02-14T13:24:50;103266.19;;;13.87;62.17
61506;BME280;47366;51.916;4.574;2023-02-14T13:27:21;103272.50;;;13.88;60.72
61506;BME280;47366;51.916;4.574;2023-02-14T13:29:50;103277.28;;;13.81;61.29
61506;BME280;47366;51.916;4.574;2023-02-14T13:32:20;103271.16;;;13.74;62.11
61506;BME280;47366;51.916;4.574;2023-02-14T13:34:48;103265.19;;;13.90;62.34
61506;BME280;47366;51.916;4.574;2023-02-14T13:37:18;103266.06;;;13.90;61.99
61506;BME280;47366;51.916;4.574;2023-02-14T13:39:47;103261.09;;;13.76;60.56
61506;BME280;47366;51.916;4.574;2023-02-14T13:48:04;103273.34;;;13.38;62.21
61506;BME280;47366;51.916;4.574;2023-02-14T13:50:36;103266.59;;;13.23;61.90
61506;BME280;47366;51.916;4.574;2023-02-14T13:53:02;103264.00;;;13.18;62.17
61506;BME280;47366;51.916;4.574;2023-02-14T13:55:33;103260.91;;;13.03;63.17
61506;BME280;47366;51.916;4.574;2023-02-14T13:58:05;103260.28;;;12.94;63.22
61506;BME280;47366;51.916;4.574;2023-02-14T14:00:44;103263.22;;;12.87;64.51
61506;BME280;47366;51.916;4.574;2023-02-14T14:06:01;103263.84;;;12.68;64.60
61506;BME280;47366;51.916;4.574;2023-02-14T14:18:59;103257.56;;;12.37;65.75
61506;BME280;47366;51.916;4.574;2023-02-14T14:21:30;103255.94;;;12.29;65.17
61506;BME280;47366;51.916;4.574;2023-02-14T14:24:16;103244.31;;;12.26;65.55
61506;BME280;47366;51.916;4.574;2023-02-14T14:26:45;103243.47;;;12.24;66.38
61506;BME280;47366;51.916;4.574;2023-02-14T14:29:21;103246.94;;;12.27;67.00
61506;BME280;47366;51.916;4.574;2023-02-14T14:31:49;103246.41;;;12.16;65.43
61506;BME280;47366;51.916;4.574;2023-02-14T14:34:21;103242.03;;;12.10;65.43
61506;BME280;47366;51.916;4.574;2023-02-14T14:36:49;103240.22;;;12.11;66.73
61506;BME280;47366;51.916;4.574;2023-02-14T14:39:26;103238.53;;;12.07;66.57
61506;BME280;47366;51.916;4.574;2023-02-14T14:41:52;103241.28;;;12.05;66.26
61506;BME280;47366;51.916;4.574;2023-02-14T14:44:18;103239.59;;;12.01;67.08
61506;BME280;47366;51.916;4.574;2023-02-14T14:46:44;103240.53;;;12.00;66.51
61506;BME280;47366;51.916;4.574;2023-02-14T14:49:11;103235.19;;;11.97;67.21
61506;BME280;47366;51.916;4.574;2023-02-14T14:51:37;103227.88;;;11.99;66.77
61506;BME280;47366;51.916;4.574;2023-02-14T14:54:22;103236.78;;;12.04;67.27
61506;BME280;47366;51.916;4.574;2023-02-14T14:56:59;103229.50;;;12.06;67.48
61506;BME280;47366;51.916;4.574;2023-02-14T14:59:32;103240.28;;;12.08;67.82
61506;BME280;47366;51.916;4.574;2023-02-14T15:02:05;103236.66;;;12.09;67.86
61506;BME280;47366;51.916;4.574;2023-02-14T15:04:44;103226.72;;;12.08;67.62
61506;BME280;47366;51.916;4.574;2023-02-14T15:07:18;103227.63;;;12.08;66.68
61506;BME280;47366;51.916;4.574;2023-02-14T15:09:45;103224.84;;;12.10;67.73
61506;BME280;47366;51.916;4.574;2023-02-14T15:12:11;103219.41;;;12.10;68.09
61506;BME280;47366;51.916;4.574;2023-02-14T15:14:58;103226.63;;;12.11;67.52
61506;BME280;47366;51.916;4.574;2023-02-14T15:17:27;103224.06;;;12.06;67.54
61506;BME280;47366;51.916;4.574;2023-02-14T15:19:56;103223.06;;;12.09;67.83
61506;BME280;47366;51.916;4.574;2023-02-14T15:24:49;103219.78;;;11.98;68.48
61506;BME280;47366;51.916;4.574;2023-02-14T15:27:19;103227.13;;;11.94;68.67
61506;BME280;47366;51.916;4.574;2023-02-14T15:29:59;103221.94;;;11.85;68.50
61506;BME280;47366;51.916;4.574;2023-02-14T15:32:28;103232.09;;;11.77;68.64
61506;BME280;47366;51.916;4.574;2023-02-14T15:34:54;103220.59;;;11.68;69.14
61506;BME280;47366;51.916;4.574;2023-02-14T15:37:21;103217.16;;;11.62;69.16
61506;BME280;47366;51.916;4.574;2023-02-14T15:39:50;103223.59;;;11.58;69.25
61506;BME280;47366;51.916;4.574;2023-02-14T15:42:30;103226.50;;;11.50;69.52